Time;durP1;ratioP1;P1;durP2;ratioP2;P2;SDS_P1;SDS_P2;PMS_P1;PMS_P2;Temp;Humidity;BMP_temperature;BMP_pressure;BME280_temperature;BME280_humidity;BME280_pressure;Samples;Min_cycle;Max_cycle;Signal;HPM_P1;HPM_P2
2022/06/27 00:00:10;;;;;;;0.70;0.68;;;20.10;71.80;;;;;;5084111;28;20107;-63
2022/06/27 00:02:39;;;;;;;1.13;0.90;;;20.10;71.80;;;;;;5077194;28;20039;-63
2022/06/27 00:05:05;;;;;;;2.60;0.85;;;20.10;71.90;;;;;;5078230;28;20795;-66
2022/06/27 00:07:31;;;;;;;0.70;0.65;;;20.10;72.00;;;;;;5076419;28;20028;-66
2022/06/27 00:09:57;;;;;;;0.90;0.88;;;20.10;72.10;;;;;;5068530;28;20089;-66
2022/06/27 00:12:23;;;;;;;2.85;1.20;;;20.10;72.10;;;;;;5084428;28;20042;-67
2022/06/27 00:14:49;;;;;;;1.05;0.85;;;20.10;72.10;;;;;;5071303;28;20136;-66
2022/06/27 00:17:14;;;;;;;1.38;0.70;;;20.10;72.10;;;;;;5093393;28;20027;-66
2022/06/27 00:19:40;;;;;;;0.70;0.70;;;20.10;72.10;;;;;;5073749;28;20016;-67
2022/06/27 00:22:06;;;;;;;0.75;0.75;;;20.10;72.00;;;;;;5096404;28;20040;-67
2022/06/27 00:24:32;;;;;;;0.80;0.70;;;20.10;71.90;;;;;;5094919;28;20064;-67
2022/06/27 00:26:58;;;;;;;0.68;0.63;;;20.10;71.90;;;;;;5077954;28;20024;-67
2022/06/27 00:29:23;;;;;;;0.82;0.65;;;20.10;71.90;;;;;;5078546;28;20715;-64
2022/06/27 00:31:49;;;;;;;1.02;0.90;;;20.10;71.80;;;;;;5085009;28;20486;-65
2022/06/27 00:34:16;;;;;;;1.70;0.93;;;20.10;71.80;;;;;;5079827;28;20067;-64
2022/06/27 00:36:42;;;;;;;0.60;0.60;;;20.10;71.80;;;;;;5082796;28;20028;-64
2022/06/27 00:39:08;;;;;;;2.30;1.10;;;20.10;71.80;;;;;;5094267;28;20047;-64
2022/06/27 00:41:33;;;;;;;1.30;1.00;;;20.10;71.80;;;;;;5089097;28;20056;-67
2022/06/27 00:43:59;;;;;;;1.40;1.00;;;20.10;71.70;;;;;;5092730;28;20123;-66
2022/06/27 00:46:25;;;;;;;1.58;0.73;;;20.10;71.50;;;;;;5083054;28;20037;-65
2022/06/27 00:48:50;;;;;;;0.70;0.70;;;20.10;71.50;;;;;;5093507;28;20036;-67
2022/06/27 00:51:16;;;;;;;0.70;0.70;;;20.10;71.60;;;;;;5074858;28;20321;-67
2022/06/27 00:53:42;;;;;;;0.85;0.80;;;20.10;71.50;;;;;;5086263;28;20015;-67
2022/06/27 00:56:08;;;;;;;0.77;0.70;;;20.10;71.50;;;;;;5102053;28;20031;-63
2022/06/27 00:58:34;;;;;;;0.60;0.60;;;20.10;71.50;;;;;;5100432;28;20791;-64
2022/06/27 01:01:00;;;;;;;0.68;0.60;;;20.10;71.40;;;;;;5086835;28;20040;-65
2022/06/27 01:03:26;;;;;;;9.07;1.20;;;20.10;71.40;;;;;;5082239;28;20094;-64
2022/06/27 01:05:52;;;;;;;0.82;0.80;;;20.10;71.50;;;;;;5084803;28;20024;-65
2022/06/27 01:08:19;;;;;;;0.95;0.95;;;20.10;71.40;;;;;;5080896;28;20089;-63
2022/06/27 01:10:46;;;;;;;1.02;0.73;;;20.10;71.50;;;;;;5097577;28;20474;-66
2022/06/27 01:13:12;;;;;;;0.85;0.65;;;20.10;71.50;;;;;;5097754;28;20036;-66
2022/06/27 01:15:38;;;;;;;0.75;0.70;;;20.10;71.50;;;;;;5081644;28;20043;-67
2022/06/27 01:18:04;;;;;;;0.70;0.70;;;20.10;71.60;;;;;;5098542;28;20024;-67
2022/06/27 01:20:30;;;;;;;2.90;1.05;;;20.10;71.60;;;;;;5098610;28;20105;-66
2022/06/27 01:22:55;;;;;;;0.80;0.80;;;20.10;71.80;;;;;;5099280;28;20031;-66
2022/06/27 01:25:24;;;;;;;4.22;0.73;;;20.10;71.80;;;;;;5095002;28;20020;-66
2022/06/27 01:27:50;;;;;;;1.00;0.90;;;20.00;71.70;;;;;;5098851;28;20489;-67
2022/06/27 01:30:16;;;;;;;1.70;0.60;;;20.10;71.90;;;;;;5085823;28;20062;-65
2022/06/27 01:32:44;;;;;;;0.77;0.70;;;20.00;71.80;;;;;;5072837;28;20037;-64
2022/06/27 01:35:09;;;;;;;1.27;1.05;;;20.00;71.90;;;;;;5082108;28;20031;-66
2022/06/27 01:37:35;;;;;;;0.98;0.80;;;20.00;71.90;;;;;;5086851;28;20081;-66
2022/06/27 01:40:02;;;;;;;4.43;1.10;;;20.00;72.10;;;;;;5085787;28;20035;-63
2022/06/27 01:42:28;;;;;;;1.48;1.27;;;20.00;72.10;;;;;;5089487;28;20028;-64
2022/06/27 01:44:53;;;;;;;0.95;0.90;;;19.90;72.10;;;;;;5091459;28;20067;-63
2022/06/27 01:47:19;;;;;;;2.55;1.00;;;19.90;72.10;;;;;;5089343;28;20063;-65
2022/06/27 01:49:45;;;;;;;2.78;0.80;;;19.90;72.10;;;;;;5099162;28;20036;-67
2022/06/27 01:52:14;;;;;;;0.90;0.90;;;19.90;72.10;;;;;;5081810;28;20029;-64
2022/06/27 01:54:40;;;;;;;0.70;0.70;;;19.90;72.00;;;;;;5078308;28;20538;-64
2022/06/27 01:57:07;;;;;;;1.23;1.00;;;19.90;72.10;;;;;;5084828;28;20490;-63
2022/06/27 01:59:34;;;;;;;0.75;0.68;;;19.90;72.10;;;;;;5087086;28;20028;-64
2022/06/27 02:02:02;;;;;;;0.90;0.82;;;19.80;72.20;;;;;;5082623;28;20065;-65
2022/06/27 02:04:29;;;;;;;1.30;1.15;;;19.90;72.30;;;;;;5082083;28;20365;-64
2022/06/27 02:06:56;;;;;;;3.22;1.25;;;19.80;72.40;;;;;;5077062;28;20032;-63
2022/06/27 02:09:22;;;;;;;0.93;0.93;;;19.80;72.40;;;;;;5073979;28;20089;-67
2022/06/27 02:11:51;;;;;;;0.55;0.55;;;19.80;72.50;;;;;;5087865;28;20127;-66
2022/06/27 02:14:18;;;;;;;2.10;1.35;;;19.80;72.50;;;;;;5096582;28;20060;-64
2022/06/27 02:16:44;;;;;;;0.60;0.60;;;19.80;72.50;;;;;;5089052;28;20372;-65
2022/06/27 02:19:17;;;;;;;1.17;1.08;;;19.80;72.60;;;;;;5082408;28;20028;-64
2022/06/27 02:21:44;;;;;;;1.08;0.82;;;19.80;72.60;;;;;;5087193;28;20024;-65
2022/06/27 02:24:10;;;;;;;1.23;0.90;;;19.80;72.60;;;;;;5075727;28;20048;-64
2022/06/27 02:26:36;;;;;;;1.02;0.77;;;19.80;72.60;;;;;;5102631;28;20497;-67
2022/06/27 02:29:03;;;;;;;0.70;0.70;;;19.80;72.60;;;;;;5075883;28;20031;-66
2022/06/27 02:31:29;;;;;;;1.58;1.08;;;19.80;72.60;;;;;;5089655;28;20591;-65
2022/06/27 02:33:56;;;;;;;0.80;0.80;;;19.80;72.60;;;;;;5076201;28;20185;-65
2022/06/27 02:36:31;;;;;;;0.80;0.80;;;19.80;72.70;;;;;;5085200;28;20031;-67
2022/06/27 02:39:00;;;;;;;0.65;0.65;;;19.80;72.80;;;;;;5091115;28;20032;-67
2022/06/27 02:41:28;;;;;;;1.92;0.80;;;19.80;72.90;;;;;;5092863;28;20031;-67
2022/06/27 02:44:04;;;;;;;0.68;0.68;;;19.80;73.00;;;;;;5095642;28;20815;-66
2022/06/27 02:46:30;;;;;;;0.70;0.70;;;19.80;73.00;;;;;;5090785;28;20058;-64
2022/06/27 02:48:58;;;;;;;2.10;1.23;;;19.80;73.00;;;;;;5090921;28;20063;-64
2022/06/27 02:51:33;;;;;;;1.33;0.93;;;19.80;73.00;;;;;;5090689;28;20024;-65
2022/06/27 02:54:03;;;;;;;0.60;0.60;;;19.80;73.10;;;;;;5087533;28;20051;-65
2022/06/27 02:56:31;;;;;;;1.17;0.75;;;19.80;73.20;;;;;;5088886;28;20027;-65
2022/06/27 02:59:18;;;;;;;1.30;1.05;;;19.80;73.10;;;;;;5089733;28;20067;-63
2022/06/27 03:01:46;;;;;;;8.13;1.58;;;19.80;73.10;;;;;;5092071;28;20050;-67
2022/06/27 03:04:12;;;;;;;1.27;1.05;;;19.80;73.20;;;;;;5092921;28;20023;-67
2022/06/27 03:06:38;;;;;;;2.58;1.38;;;19.80;73.20;;;;;;5092348;28;20024;-64
2022/06/27 03:09:04;;;;;;;1.35;1.25;;;19.80;73.20;;;;;;5092589;28;20035;-64
2022/06/27 03:11:29;;;;;;;2.33;1.15;;;19.80;73.20;;;;;;5091242;28;20024;-64
2022/06/27 03:13:55;;;;;;;3.00;0.88;;;19.80;73.20;;;;;;5090415;28;20131;-64
2022/06/27 03:16:22;;;;;;;1.10;1.00;;;19.80;73.20;;;;;;5093256;28;20044;-67
2022/06/27 03:18:49;;;;;;;4.05;1.25;;;19.80;73.20;;;;;;5091906;28;20478;-67
2022/06/27 03:21:17;;;;;;;1.40;1.30;;;19.80;73.20;;;;;;5087941;28;20024;-67
2022/06/27 03:23:48;;;;;;;1.77;1.17;;;19.80;73.20;;;;;;5096398;28;20055;-66
2022/06/27 03:26:14;;;;;;;1.75;1.20;;;19.80;73.20;;;;;;5096419;28;20027;-67
2022/06/27 03:28:40;;;;;;;1.00;0.80;;;19.80;73.20;;;;;;5093405;28;20028;-67
2022/06/27 03:31:06;;;;;;;2.58;1.45;;;19.80;73.20;;;;;;5092619;28;20032;-67
2022/06/27 03:33:32;;;;;;;1.85;1.30;;;19.90;73.20;;;;;;5093574;28;20224;-67
2022/06/27 03:35:57;;;;;;;3.75;1.63;;;19.90;73.20;;;;;;5080636;28;20027;-67
2022/06/27 03:38:23;;;;;;;1.23;1.13;;;19.90;73.30;;;;;;5083536;28;20036;-67
2022/06/27 03:40:49;;;;;;;5.85;1.67;;;19.90;73.40;;;;;;5084255;28;20029;-67
2022/06/27 03:43:15;;;;;;;1.10;1.00;;;19.80;73.60;;;;;;5087643;28;20436;-65
2022/06/27 03:45:44;;;;;;;2.08;1.17;;;19.80;73.50;;;;;;5089743;28;20645;-64
2022/06/27 03:50:00;;;;;;;1.77;1.67;;;19.80;73.60;;;;;;5066236;28;20040;-64
2022/06/27 03:50:56;;;;;;;1.75;1.25;;;19.80;73.70;;;;;;5077558;28;20039;-64
2022/06/27 03:53:22;;;;;;;1.38;1.25;;;19.80;73.70;;;;;;5087753;28;20107;-63
2022/06/27 03:55:47;;;;;;;6.95;1.98;;;19.80;73.80;;;;;;5073530;28;20405;-65
2022/06/27 03:58:13;;;;;;;1.75;1.27;;;19.80;73.90;;;;;;5088078;28;20031;-64
2022/06/27 04:00:39;;;;;;;1.67;1.40;;;19.80;73.90;;;;;;5100594;28;20118;-64
2022/06/27 04:03:04;;;;;;;2.53;1.52;;;19.80;73.90;;;;;;5090097;28;20043;-67
2022/06/27 04:05:30;;;;;;;1.33;1.23;;;19.70;73.90;;;;;;5106821;28;20055;-65
2022/06/27 04:07:56;;;;;;;1.20;1.10;;;19.70;74.10;;;;;;5090955;28;20028;-65
2022/06/27 04:10:21;;;;;;;1.27;1.17;;;19.70;74.10;;;;;;5090328;28;20394;-64
2022/06/27 04:12:47;;;;;;;2.13;1.23;;;19.60;74.20;;;;;;5077283;28;20036;-65
2022/06/27 04:15:13;;;;;;;1.42;1.33;;;19.60;74.20;;;;;;5077126;28;20429;-65
2022/06/27 04:17:38;;;;;;;1.27;1.20;;;19.60;74.30;;;;;;5072534;28;20036;-65
2022/06/27 04:20:05;;;;;;;5.85;1.20;;;19.60;74.40;;;;;;5077038;28;20025;-64
2022/06/27 04:22:31;;;;;;;2.05;1.75;;;19.60;74.50;;;;;;5085584;28;20039;-64
2022/06/27 04:24:58;;;;;;;1.80;1.40;;;19.60;74.50;;;;;;5078316;28;20446;-66
2022/06/27 04:27:26;;;;;;;1.95;1.58;;;19.60;74.50;;;;;;5087469;28;20025;-66
2022/06/27 04:29:54;;;;;;;1.23;1.13;;;19.70;74.60;;;;;;5077850;28;20058;-67
2022/06/27 04:32:30;;;;;;;1.67;1.58;;;19.70;74.60;;;;;;5081198;28;20569;-67
2022/06/27 04:34:56;;;;;;;8.57;1.95;;;19.70;74.50;;;;;;5070991;28;20036;-67
2022/06/27 04:37:22;;;;;;;1.30;1.10;;;19.80;74.60;;;;;;5086561;28;20040;-67
2022/06/27 04:39:48;;;;;;;3.25;1.92;;;19.80;75.20;;;;;;5091521;28;20638;-66
2022/06/27 04:42:15;;;;;;;1.30;1.20;;;19.80;75.20;;;;;;5089195;28;20039;-67
2022/06/27 04:44:41;;;;;;;2.10;1.90;;;19.90;74.70;;;;;;5076853;28;20036;-67
2022/06/27 04:47:08;;;;;;;1.45;1.35;;;19.90;74.70;;;;;;5095990;28;20111;-68
2022/06/27 04:49:37;;;;;;;3.17;1.55;;;19.90;74.70;;;;;;5087744;28;20462;-67
2022/06/27 04:52:06;;;;;;;3.13;1.80;;;20.00;74.80;;;;;;5072178;28;20725;-67
2022/06/27 04:54:32;;;;;;;1.60;1.25;;;20.00;74.80;;;;;;5093710;28;20025;-66
2022/06/27 04:56:58;;;;;;;1.50;1.38;;;20.10;74.80;;;;;;5070608;28;20078;-67
2022/06/27 04:59:23;;;;;;;2.50;1.92;;;20.10;74.80;;;;;;5073228;28;20111;-67
2022/06/27 05:01:50;;;;;;;1.10;1.00;;;20.10;74.80;;;;;;5084689;28;20032;-66
2022/06/27 05:04:19;;;;;;;1.70;1.60;;;20.20;74.80;;;;;;5084540;28;20056;-67
2022/06/27 05:06:46;;;;;;;1.92;1.33;;;20.20;74.70;;;;;;5071802;28;20022;-64
2022/06/27 05:09:13;;;;;;;2.00;1.73;;;20.30;74.70;;;;;;5080750;28;20460;-65
2022/06/27 05:11:39;;;;;;;2.60;2.17;;;20.30;74.70;;;;;;5078668;28;20537;-67
2022/06/27 05:14:05;;;;;;;3.65;1.65;;;20.40;74.80;;;;;;5092458;28;20131;-66
2022/06/27 05:16:31;;;;;;;1.88;1.63;;;20.40;74.80;;;;;;5083438;28;20108;-67
2022/06/27 05:18:57;;;;;;;3.92;1.42;;;20.40;74.90;;;;;;5101037;28;20101;-64
2022/06/27 05:21:23;;;;;;;2.20;1.98;;;20.40;74.90;;;;;;5087572;28;20452;-68
2022/06/27 05:23:50;;;;;;;2.10;1.90;;;20.50;74.90;;;;;;5081981;28;20113;-67
2022/06/27 05:26:16;;;;;;;2.13;1.73;;;20.50;74.90;;;;;;5083537;28;20617;-67
2022/06/27 05:28:42;;;;;;;1.45;1.33;;;20.50;74.80;;;;;;5075284;28;20051;-67
2022/06/27 05:31:09;;;;;;;1.70;1.60;;;20.50;74.80;;;;;;5076792;28;20114;-67
2022/06/27 05:33:35;;;;;;;4.40;2.45;;;20.60;74.80;;;;;;5092557;28;20118;-67
2022/06/27 05:36:02;;;;;;;1.73;1.52;;;20.60;74.80;;;;;;5085977;28;20502;-66
2022/06/27 05:38:28;;;;;;;1.55;1.45;;;20.60;74.80;;;;;;5080359;28;20475;-67
2022/06/27 05:40:53;;;;;;;5.68;1.70;;;20.60;74.80;;;;;;5082687;28;20038;-64
2022/06/27 05:43:19;;;;;;;2.53;1.40;;;20.60;74.60;;;;;;5088605;28;20058;-67
2022/06/27 05:45:45;;;;;;;2.00;1.83;;;20.60;74.60;;;;;;5089940;28;20398;-65
2022/06/27 05:48:11;;;;;;;3.20;2.17;;;20.60;74.60;;;;;;5089084;28;20097;-63
2022/06/27 05:50:37;;;;;;;2.08;1.88;;;20.60;74.60;;;;;;5072667;28;20363;-67
2022/06/27 05:53:03;;;;;;;1.85;1.75;;;20.60;74.60;;;;;;5083909;28;20020;-64
2022/06/27 05:55:32;;;;;;;2.25;2.03;;;20.60;74.60;;;;;;5087944;28;20028;-65
2022/06/27 05:58:00;;;;;;;1.63;1.50;;;20.60;74.50;;;;;;5082468;28;20086;-64
2022/06/27 06:00:28;;;;;;;1.85;1.73;;;20.60;74.50;;;;;;5082915;28;20030;-63
2022/06/27 06:02:54;;;;;;;2.00;1.90;;;20.60;74.50;;;;;;5075979;28;20013;-64
2022/06/27 06:05:21;;;;;;;1.90;1.75;;;20.50;74.40;;;;;;5076036;28;20036;-65
2022/06/27 06:07:48;;;;;;;3.00;2.22;;;20.50;74.40;;;;;;5088397;28;20151;-65
2022/06/27 06:10:14;;;;;;;2.30;2.08;;;20.50;74.40;;;;;;5076255;28;20044;-64
2022/06/27 06:12:41;;;;;;;1.63;1.52;;;20.60;74.40;;;;;;5083303;28;20023;-64
2022/06/27 06:15:08;;;;;;;2.40;1.95;;;20.70;74.20;;;;;;5079779;28;20167;-65
2022/06/27 06:17:35;;;;;;;1.85;1.50;;;20.80;73.90;;;;;;5095841;28;20035;-65
2022/06/27 06:20:05;;;;;;;2.00;1.67;;;20.80;73.70;;;;;;5092839;28;20044;-65
2022/06/27 06:22:31;;;;;;;1.70;1.60;;;20.80;73.60;;;;;;5080187;28;20032;-65
2022/06/27 06:24:58;;;;;;;3.10;1.65;;;20.90;73.50;;;;;;5075901;28;20100;-65
2022/06/27 06:27:24;;;;;;;1.98;1.80;;;20.90;73.40;;;;;;5081143;28;20039;-64
2022/06/27 06:29:50;;;;;;;1.80;1.70;;;21.00;73.30;;;;;;5079299;28;20109;-64
2022/06/27 06:32:16;;;;;;;1.83;1.73;;;21.00;73.20;;;;;;5081699;28;20052;-64
2022/06/27 06:34:43;;;;;;;3.15;1.85;;;21.00;73.20;;;;;;5082872;28;20027;-65
2022/06/27 06:37:09;;;;;;;4.70;2.47;;;21.00;73.00;;;;;;5083058;28;20023;-63
2022/06/27 06:39:36;;;;;;;2.53;2.33;;;21.00;73.10;;;;;;5087372;28;20490;-64
2022/06/27 06:42:03;;;;;;;1.92;1.77;;;21.00;73.10;;;;;;5083792;28;20032;-64
2022/06/27 06:44:30;;;;;;;1.65;1.55;;;20.90;73.10;;;;;;5086214;28;20055;-63
2022/06/27 06:46:56;;;;;;;2.70;2.03;;;20.90;73.20;;;;;;5081178;28;20020;-63
2022/06/27 06:49:25;;;;;;;2.17;1.88;;;20.90;73.30;;;;;;5085931;28;20376;-64
2022/06/27 06:51:51;;;;;;;5.20;2.15;;;20.90;73.40;;;;;;5084241;28;20059;-65
2022/06/27 06:54:18;;;;;;;5.85;2.55;;;20.90;73.40;;;;;;5069824;28;20553;-65
2022/06/27 06:56:51;;;;;;;3.78;2.30;;;20.90;73.40;;;;;;5087576;28;20114;-65
2022/06/27 06:59:17;;;;;;;2.03;1.80;;;20.90;73.40;;;;;;5085684;28;20043;-65
2022/06/27 07:01:43;;;;;;;3.28;1.70;;;20.90;73.40;;;;;;5082245;28;20025;-65
2022/06/27 07:04:11;;;;;;;1.77;1.67;;;20.90;73.40;;;;;;5080105;28;20035;-65
2022/06/27 07:06:38;;;;;;;1.67;1.58;;;21.00;73.50;;;;;;5080450;28;20123;-65
2022/06/27 07:09:04;;;;;;;2.17;1.63;;;21.00;73.50;;;;;;5089426;28;20032;-67
2022/06/27 07:11:31;;;;;;;2.78;1.92;;;21.00;73.40;;;;;;5082815;28;20463;-67
2022/06/27 07:13:58;;;;;;;9.95;2.47;;;21.10;73.40;;;;;;5077538;28;20437;-67
2022/06/27 07:16:25;;;;;;;2.50;1.73;;;21.10;73.30;;;;;;5071249;28;20122;-66
2022/06/27 07:18:53;;;;;;;2.92;1.80;;;21.20;73.30;;;;;;5074840;28;20037;-67
2022/06/27 07:21:19;;;;;;;3.40;1.95;;;21.20;73.20;;;;;;5070566;28;21000;-67
2022/06/27 07:23:47;;;;;;;2.75;1.90;;;21.20;73.20;;;;;;5083848;28;20021;-67
2022/06/27 07:26:17;;;;;;;2.75;2.45;;;21.20;73.10;;;;;;5078469;28;20020;-67
2022/06/27 07:28:43;;;;;;;2.47;2.05;;;21.30;73.20;;;;;;5075343;28;20349;-67
2022/06/27 07:31:12;;;;;;;1.80;1.48;;;21.30;73.10;;;;;;5080383;28;20036;-67
2022/06/27 07:33:42;;;;;;;1.77;1.27;;;21.30;73.10;;;;;;5084811;28;20697;-66
2022/06/27 07:36:14;;;;;;;1.80;1.70;;;21.30;73.00;;;;;;5079581;28;20410;-67
2022/06/27 07:38:46;;;;;;;2.45;1.95;;;21.30;73.10;;;;;;5070916;28;20032;-66
2022/06/27 07:41:16;;;;;;;3.45;2.28;;;21.30;73.10;;;;;;5080992;28;20028;-67
2022/06/27 07:43:44;;;;;;;2.35;1.58;;;21.30;73.10;;;;;;5069307;28;20101;-67
2022/06/27 07:46:10;;;;;;;2.40;1.92;;;21.30;73.00;;;;;;5075326;28;20035;-67
2022/06/27 07:48:37;;;;;;;4.05;2.78;;;21.30;73.00;;;;;;5067831;28;20044;-67
2022/06/27 07:51:03;;;;;;;2.33;1.88;;;21.40;73.00;;;;;;5082356;28;20051;-68
2022/06/27 07:53:29;;;;;;;2.05;1.75;;;21.40;73.10;;;;;;5073601;28;20032;-67
2022/06/27 07:55:56;;;;;;;1.48;1.38;;;21.40;73.00;;;;;;5077019;28;20516;-67
2022/06/27 07:58:38;;;;;;;2.50;2.15;;;21.40;73.10;;;;;;5079160;28;20040;-67
2022/06/27 08:01:09;;;;;;;1.95;1.75;;;21.40;73.00;;;;;;5071491;28;20023;-67
2022/06/27 08:03:36;;;;;;;2.00;1.80;;;21.50;72.90;;;;;;5077548;28;20024;-67
2022/06/27 08:06:05;;;;;;;2.05;1.85;;;21.60;72.80;;;;;;5082452;28;20485;-67
2022/06/27 08:08:33;;;;;;;1.80;1.63;;;21.60;72.60;;;;;;5081619;28;20771;-67
2022/06/27 08:11:00;;;;;;;1.90;1.77;;;21.70;72.50;;;;;;5073855;28;20024;-67
2022/06/27 08:13:26;;;;;;;4.32;2.15;;;21.80;72.40;;;;;;5088545;28;20119;-66
2022/06/27 08:15:53;;;;;;;3.50;2.00;;;21.80;72.30;;;;;;5066490;28;20040;-66
2022/06/27 08:18:19;;;;;;;1.80;1.55;;;21.90;72.10;;;;;;5092573;28;20426;-67
2022/06/27 08:20:48;;;;;;;1.10;1.00;;;21.90;71.90;;;;;;5083048;28;20115;-67
2022/06/27 08:23:15;;;;;;;2.70;1.92;;;21.90;71.90;;;;;;5074089;28;20036;-64
2022/06/27 08:25:42;;;;;;;3.13;2.33;;;21.80;72.10;;;;;;5088198;28;20463;-64
2022/06/27 08:28:13;;;;;;;2.03;1.77;;;21.80;71.40;;;;;;5073206;28;20479;-64
2022/06/27 08:30:41;;;;;;;2.88;1.63;;;21.80;71.50;;;;;;5088605;28;20375;-65
2022/06/27 08:33:08;;;;;;;1.52;1.38;;;21.80;71.20;;;;;;5091803;28;20538;-64
2022/06/27 08:35:35;;;;;;;1.10;1.00;;;21.70;71.00;;;;;;5088751;28;20035;-64
2022/06/27 08:38:01;;;;;;;2.03;1.75;;;21.70;71.00;;;;;;5093110;28;20570;-65
2022/06/27 08:40:27;;;;;;;1.67;1.55;;;21.80;70.70;;;;;;5075652;28;20078;-65
2022/06/27 08:42:55;;;;;;;1.77;1.58;;;21.80;70.70;;;;;;5094871;28;20113;-66
2022/06/27 08:45:25;;;;;;;1.67;1.48;;;21.90;70.50;;;;;;5086138;28;20479;-66
2022/06/27 08:47:54;;;;;;;1.80;1.70;;;22.10;70.40;;;;;;5079570;28;20525;-67
2022/06/27 08:50:20;;;;;;;2.00;1.77;;;22.20;69.10;;;;;;5079432;28;20030;-68
2022/06/27 08:52:47;;;;;;;1.42;0.93;;;22.20;68.50;;;;;;5090214;28;20031;-67
2022/06/27 08:55:12;;;;;;;0.80;0.75;;;22.30;66.60;;;;;;5079650;28;20471;-66
2022/06/27 08:57:41;;;;;;;1.15;1.10;;;22.40;66.60;;;;;;5092282;28;20036;-67
2022/06/27 09:00:09;;;;;;;1.25;1.05;;;22.40;65.60;;;;;;5079193;28;20024;-68
2022/06/27 09:02:42;;;;;;;1.55;1.45;;;22.50;65.60;;;;;;5082513;28;20102;-68
2022/06/27 09:05:24;;;;;;;1.95;1.40;;;22.60;65.90;;;;;;5074885;28;20028;-67
2022/06/27 09:07:55;;;;;;;1.70;0.90;;;22.70;66.00;;;;;;5084753;28;20029;-68
2022/06/27 09:10:29;;;;;;;1.45;0.93;;;22.80;65.80;;;;;;5086494;28;20024;-66
2022/06/27 09:12:56;;;;;;;1.05;0.95;;;22.80;65.60;;;;;;5075099;28;20472;-67
2022/06/27 09:15:26;;;;;;;1.05;0.80;;;22.90;65.30;;;;;;5078565;28;20040;-68
2022/06/27 09:18:00;;;;;;;1.23;1.13;;;22.90;65.40;;;;;;5088460;28;20566;-68
2022/06/27 09:20:55;;;;;;;1.92;1.30;;;22.90;65.40;;;;;;5076430;28;20078;-67
2022/06/27 09:23:47;;;;;;;1.17;0.80;;;22.90;65.00;;;;;;5083123;28;20478;-68
2022/06/27 09:26:20;;;;;;;1.30;1.20;;;22.90;65.00;;;;;;5081577;28;20106;-67
2022/06/27 09:28:51;;;;;;;2.50;1.45;;;22.90;64.70;;;;;;5074635;28;20827;-68
2022/06/27 09:31:26;;;;;;;3.03;1.45;;;22.90;64.30;;;;;;5078125;28;20028;-68
2022/06/27 09:34:16;;;;;;;1.88;1.25;;;22.90;63.60;;;;;;5068845;28;20086;-67
2022/06/27 09:36:52;;;;;;;1.40;1.30;;;23.00;62.50;;;;;;5072824;28;20073;-64
2022/06/27 09:39:18;;;;;;;1.80;1.48;;;22.90;61.70;;;;;;5085798;28;20123;-64
2022/06/27 09:41:54;;;;;;;1.20;1.10;;;22.90;61.00;;;;;;5083298;28;20099;-64
2022/06/27 09:44:22;;;;;;;1.23;0.98;;;22.80;61.60;;;;;;5070179;28;20126;-64
2022/06/27 09:46:54;;;;;;;2.15;1.05;;;22.90;62.20;;;;;;5082614;28;20017;-64
2022/06/27 09:49:21;;;;;;;2.33;1.40;;;23.00;62.40;;;;;;5082015;28;20050;-68
2022/06/27 09:51:48;;;;;;;4.78;1.25;;;23.10;62.60;;;;;;5085690;28;20024;-68
2022/06/27 09:54:16;;;;;;;1.42;1.23;;;23.10;62.80;;;;;;5083021;28;20024;-67
2022/06/27 09:56:42;;;;;;;1.58;1.48;;;23.10;62.80;;;;;;5082934;28;20089;-67
2022/06/27 09:59:12;;;;;;;1.92;1.10;;;23.10;62.50;;;;;;5086793;28;20588;-68
2022/06/27 10:01:42;;;;;;;1.65;1.30;;;23.10;62.00;;;;;;5086689;28;20530;-64
2022/06/27 10:04:09;;;;;;;1.45;1.35;;;23.00;61.60;;;;;;5084866;28;20035;-64
2022/06/27 10:06:37;;;;;;;1.08;1.02;;;23.00;62.00;;;;;;5086207;28;20039;-64
2022/06/27 10:09:05;;;;;;;1.42;1.10;;;23.00;62.20;;;;;;5086300;28;20380;-64
2022/06/27 10:11:32;;;;;;;1.38;1.27;;;23.10;62.50;;;;;;5083285;28;20047;-68
2022/06/27 10:14:19;;;;;;;1.92;1.10;;;23.20;62.70;;;;;;5081778;28;20130;-67
2022/06/27 10:17:07;;;;;;;3.08;1.48;;;23.40;62.80;;;;;;5087879;28;20028;-67
2022/06/27 10:19:32;;;;;;;1.60;1.35;;;23.50;62.30;;;;;;5082014;28;20024;-68
2022/06/27 10:21:58;;;;;;;1.42;1.33;;;23.50;62.10;;;;;;5088695;28;20141;-67
2022/06/27 10:24:24;;;;;;;2.50;1.58;;;23.60;62.20;;;;;;5089694;28;20040;-67
2022/06/27 10:26:56;;;;;;;1.95;1.25;;;23.60;62.00;;;;;;5085491;28;20712;-67
2022/06/27 10:29:30;;;;;;;1.73;1.63;;;23.60;62.00;;;;;;5084748;28;20479;-68
2022/06/27 10:32:03;;;;;;;1.67;1.58;;;23.60;61.90;;;;;;5081946;28;20038;-68
2022/06/27 10:34:37;;;;;;;1.58;1.48;;;23.60;61.50;;;;;;5084405;28;20111;-67
2022/06/27 10:37:24;;;;;;;2.25;1.10;;;23.60;61.50;;;;;;5087124;28;20420;-67
2022/06/27 10:39:50;;;;;;;2.20;1.48;;;23.60;61.20;;;;;;5084195;28;20031;-67
2022/06/27 10:42:51;;;;;;;1.17;1.08;;;23.70;61.20;;;;;;5080554;28;20031;-64
2022/06/27 10:45:20;;;;;;;1.85;1.75;;;23.80;61.00;;;;;;5084277;28;20123;-68
2022/06/27 10:47:50;;;;;;;1.92;1.10;;;23.80;59.30;;;;;;5087501;28;20020;-68
2022/06/27 10:50:18;;;;;;;2.05;1.60;;;23.80;59.70;;;;;;5086449;28;20020;-68
2022/06/27 10:52:45;;;;;;;2.13;1.88;;;23.90;59.80;;;;;;5082385;28;20028;-65
2022/06/27 10:55:29;;;;;;;1.42;1.25;;;24.00;59.70;;;;;;5081610;28;20038;-64
2022/06/27 10:57:56;;;;;;;1.35;1.23;;;24.00;59.80;;;;;;5081710;28;20036;-65
2022/06/27 11:00:43;;;;;;;1.38;1.27;;;24.20;60.00;;;;;;5082505;28;20062;-64
2022/06/27 11:03:20;;;;;;;1.55;0.88;;;24.20;60.00;;;;;;5081540;28;20422;-64
2022/06/27 11:06:00;;;;;;;1.65;1.15;;;24.30;59.40;;;;;;5084742;28;20081;-63
2022/06/27 11:08:27;;;;;;;1.25;1.25;;;24.30;59.40;;;;;;5087787;28;20055;-64
2022/06/27 11:10:54;;;;;;;1.63;1.30;;;24.30;59.50;;;;;;5086006;28;20020;-67
2022/06/27 11:13:42;;;;;;;1.40;1.30;;;24.30;59.50;;;;;;5081685;28;20114;-67
2022/06/27 11:16:19;;;;;;;1.58;1.45;;;24.50;59.60;;;;;;5081852;28;20044;-67
2022/06/27 11:21:55;;;;;;;1.45;1.35;;;24.90;59.70;;;;;;5071035;28;20047;-65
2022/06/27 11:24:20;;;;;;;1.33;1.23;;;25.00;58.40;;;;;;5080826;28;20029;-67
2022/06/27 11:26:48;;;;;;;11.27;1.55;;;25.00;58.30;;;;;;5084103;28;20028;-68
2022/06/27 11:32:23;;;;;;;1.67;0.90;;;24.90;57.50;;;;;;5078791;28;20078;-68
2022/06/27 11:34:51;;;;;;;1.08;1.00;;;24.90;57.50;;;;;;5083498;28;20123;-67
2022/06/27 11:37:18;;;;;;;2.08;1.13;;;25.00;57.50;;;;;;5082477;28;20179;-63
2022/06/27 11:40:18;;;;;;;0.90;0.90;;;25.10;56.60;;;;;;5085181;28;20031;-64
2022/06/27 11:42:44;;;;;;;1.15;1.02;;;24.90;54.40;;;;;;5039503;28;20197;-64
2022/06/27 11:45:14;;;;;;;1.20;1.10;;;24.70;55.00;;;;;;5085774;28;20116;-64
2022/06/27 11:47:45;;;;;;;0.75;0.75;;;24.60;55.90;;;;;;5086021;28;20043;-68
2022/06/27 11:50:12;;;;;;;0.88;0.75;;;24.50;56.10;;;;;;5086396;28;20122;-65
2022/06/27 11:52:44;;;;;;;1.35;0.90;;;24.50;55.40;;;;;;5087110;28;20115;-64
2022/06/27 11:55:13;;;;;;;0.80;0.75;;;24.40;55.60;;;;;;5090146;28;20035;-67
2022/06/27 11:57:51;;;;;;;1.08;1.08;;;24.20;55.80;;;;;;5085479;28;20117;-67
2022/06/27 12:00:22;;;;;;;1.45;1.20;;;24.30;56.50;;;;;;5085328;28;20474;-64
2022/06/27 12:03:00;;;;;;;1.00;0.75;;;24.20;57.30;;;;;;5084674;28;21621;-67
2022/06/27 12:05:26;;;;;;;1.35;1.13;;;24.20;57.50;;;;;;5085297;28;20044;-68
2022/06/27 12:07:55;;;;;;;3.83;0.90;;;24.20;57.20;;;;;;5082252;28;20051;-66
2022/06/27 12:10:36;;;;;;;0.90;0.88;;;24.20;57.00;;;;;;5093142;28;20186;-64
2022/06/27 12:13:15;;;;;;;3.63;1.98;;;24.10;56.50;;;;;;5083484;28;20024;-65
2022/06/27 12:15:45;;;;;;;1.40;1.30;;;24.10;55.90;;;;;;5082733;28;20083;-64
2022/06/27 12:18:12;;;;;;;2.17;1.55;;;24.10;56.70;;;;;;5081712;28;20024;-65
2022/06/27 12:20:41;;;;;;;1.40;1.10;;;24.20;56.70;;;;;;5085613;28;20784;-63
2022/06/27 12:23:07;;;;;;;0.77;0.77;;;24.40;56.80;;;;;;5088708;28;20141;-65
2022/06/27 12:25:35;;;;;;;1.63;1.05;;;24.50;56.60;;;;;;5089256;28;20070;-64
2022/06/27 12:28:05;;;;;;;1.48;1.20;;;24.80;56.10;;;;;;5091127;28;20081;-64
2022/06/27 12:30:32;;;;;;;1.30;1.20;;;24.90;56.20;;;;;;5085298;28;20395;-64
2022/06/27 12:32:58;;;;;;;0.80;0.77;;;25.00;55.90;;;;;;5094214;28;20081;-64
2022/06/27 12:35:24;;;;;;;1.15;1.05;;;25.00;55.90;;;;;;5089310;28;20032;-64
2022/06/27 12:37:50;;;;;;;1.52;1.42;;;24.90;55.70;;;;;;5074219;28;20032;-64
2022/06/27 12:40:16;;;;;;;2.60;1.45;;;24.90;54.70;;;;;;5085702;28;20624;-63
2022/06/27 12:42:42;;;;;;;1.85;1.05;;;24.80;54.10;;;;;;5085313;28;20032;-64
2022/06/27 12:45:08;;;;;;;1.35;1.25;;;24.70;54.30;;;;;;5083476;28;20034;-64
2022/06/27 12:47:34;;;;;;;1.23;0.95;;;24.70;54.10;;;;;;5090417;28;20067;-65
2022/06/27 12:49:59;;;;;;;2.47;1.10;;;24.70;54.10;;;;;;5080939;28;20056;-65
2022/06/27 12:52:25;;;;;;;2.30;1.23;;;24.80;54.70;;;;;;5093924;28;20048;-64
2022/06/27 12:54:51;;;;;;;2.40;1.13;;;24.80;54.90;;;;;;5075407;28;20036;-64
2022/06/27 12:57:17;;;;;;;1.15;1.00;;;24.70;54.70;;;;;;5083754;28;20032;-64
2022/06/27 12:59:43;;;;;;;1.15;0.93;;;24.70;54.80;;;;;;5088690;28;20060;-64